createdAt,value
2023-02-19T00:01:52.192Z,96149.88
2023-02-19T00:04:38.220Z,96148.84
2023-02-19T00:07:24.151Z,96150.69
2023-02-19T00:10:09.917Z,96137.13
2023-02-19T00:12:55.779Z,96149.97
2023-02-19T00:15:41.589Z,96130.28
2023-02-19T00:18:27.417Z,96128.56
2023-02-19T00:21:14.249Z,96129.75
2023-02-19T00:24:02.528Z,96108.50
2023-02-19T00:26:49.139Z,96114.72
2023-02-19T00:29:35.311Z,96105.13
2023-02-19T00:32:21.208Z,96111.44
2023-02-19T00:35:06.921Z,96109.59
2023-02-19T00:37:52.842Z,96113.81
2023-02-19T00:40:39.048Z,96092.88
2023-02-19T00:43:24.909Z,96134.75
2023-02-19T00:46:12.605Z,96122.44
2023-02-19T00:48:59.035Z,96090.16
2023-02-19T00:51:45.482Z,96134.03
2023-02-19T00:54:31.638Z,96120.69
2023-02-19T00:57:18.004Z,96128.81
2023-02-19T01:00:06.622Z,96120.78
2023-02-19T01:02:52.718Z,96112.91
2023-02-19T01:05:38.662Z,96116.75
2023-02-19T01:08:25.262Z,96112.84
2023-02-19T01:11:12.195Z,96120.59
2023-02-19T01:13:59.816Z,96119.63
2023-02-19T01:16:45.701Z,96121.69
2023-02-19T01:19:31.591Z,96110.00
2023-02-19T01:22:17.233Z,96111.13
2023-02-19T01:25:03.219Z,96110.59
2023-02-19T01:27:49.159Z,96112.88
2023-02-19T01:30:37.381Z,96112.03
2023-02-19T01:33:23.278Z,96110.13
2023-02-19T01:36:09.632Z,96115.47
2023-02-19T01:38:56.097Z,96125.41
2023-02-19T01:41:42.069Z,96129.91
2023-02-19T01:44:28.286Z,96130.16
2023-02-19T01:47:15.437Z,96124.59
2023-02-19T01:50:01.445Z,96124.47
2023-02-19T01:52:47.727Z,96118.31
2023-02-19T01:55:34.259Z,96118.44
2023-02-19T01:58:20.537Z,96128.09
2023-02-19T02:01:08.389Z,96112.28
2023-02-19T02:03:54.566Z,96107.41
2023-02-19T02:06:48.999Z,96099.72
2023-02-19T02:09:53.740Z,96097.84
2023-02-19T02:12:39.584Z,96113.19
2023-02-19T02:15:30.143Z,96111.81
2023-02-19T02:18:58.639Z,96122.38
2023-02-19T02:21:57.373Z,96114.25
2023-02-19T02:24:46.611Z,96115.25
2023-02-19T02:27:54.309Z,96112.19
2023-02-19T02:30:42.323Z,96118.84
2023-02-19T02:34:03.165Z,96119.91
2023-02-19T02:36:53.094Z,96113.47
2023-02-19T02:39:39.939Z,96101.38
2023-02-19T02:42:28.913Z,96132.53
2023-02-19T02:45:38.055Z,96133.38
2023-02-19T02:48:44.302Z,96133.53
2023-02-19T02:51:33.826Z,96129.03
2023-02-19T02:54:49.097Z,96139.28
2023-02-19T02:57:36.806Z,96132.59
2023-02-19T03:00:24.443Z,96139.41
2023-02-19T03:03:10.330Z,96143.75
2023-02-19T03:06:00.060Z,96136.09
2023-02-19T03:08:54.402Z,96114.88
2023-02-19T03:12:01.617Z,96137.38
2023-02-19T03:15:08.116Z,96130.38
2023-02-19T03:18:17.035Z,96135.97
2023-02-19T03:21:04.570Z,96140.47
2023-02-19T03:24:09.444Z,96132.78
2023-02-19T03:26:57.272Z,96141.19
2023-02-19T03:29:45.240Z,96133.53
2023-02-19T03:32:45.279Z,96147.09
2023-02-19T03:35:33.558Z,96145.59
2023-02-19T03:38:32.345Z,96159.31
2023-02-19T03:41:46.541Z,96156.25
2023-02-19T03:45:04.415Z,96166.03
2023-02-19T03:48:13.953Z,96161.28
2023-02-19T03:51:14.816Z,96165.34
2023-02-19T03:54:03.581Z,96173.47
2023-02-19T03:57:24.130Z,96174.03
2023-02-19T04:00:28.380Z,96158.50
2023-02-19T04:03:29.020Z,96163.41
2023-02-19T04:06:18.352Z,96178.22
2023-02-19T04:09:06.925Z,96177.38
2023-02-19T04:11:54.090Z,96171.78
2023-02-19T04:14:44.688Z,96171.13
2023-02-19T04:17:35.983Z,96147.81
2023-02-19T04:20:23.511Z,96172.09
2023-02-19T04:23:09.687Z,96169.72
2023-02-19T04:25:58.972Z,96172.09
2023-02-19T04:28:44.660Z,96177.84
2023-02-19T04:31:35.337Z,96161.09
2023-02-19T04:34:21.572Z,96162.63
2023-02-19T04:37:07.686Z,96171.56
2023-02-19T04:39:53.383Z,96172.53
2023-02-19T04:42:39.291Z,96152.97
2023-02-19T04:45:24.899Z,96154.09
2023-02-19T04:48:11.059Z,96171.81
2023-02-19T04:50:57.307Z,96166.81
2023-02-19T04:53:43.112Z,96176.03
2023-02-19T04:56:29.208Z,96166.94
2023-02-19T04:59:15.137Z,96154.97
2023-02-19T05:02:01.029Z,96168.66
2023-02-19T05:04:46.838Z,96181.63
2023-02-19T05:07:34.313Z,96179.25
2023-02-19T05:10:20.327Z,96177.03
2023-02-19T05:13:06.124Z,96180.81
2023-02-19T05:15:59.133Z,96178.84
2023-02-19T05:18:46.104Z,96162.09
2023-02-19T05:21:32.094Z,96173.09
2023-02-19T05:24:18.057Z,96176.06
2023-02-19T05:27:04.026Z,96185.03
2023-02-19T05:29:49.970Z,96181.66
2023-02-19T05:32:36.048Z,96182.78
2023-02-19T05:35:21.822Z,96184.44
2023-02-19T05:38:08.240Z,96187.09
2023-02-19T05:40:54.032Z,96179.84
2023-02-19T05:43:41.406Z,96195.34
2023-02-19T05:46:29.922Z,96179.00
2023-02-19T05:49:16.122Z,96187.13
2023-02-19T05:52:01.977Z,96179.00
2023-02-19T05:54:47.940Z,96202.19
2023-02-19T05:57:33.838Z,96189.88
2023-02-19T06:00:20.493Z,96199.25
2023-02-19T06:03:06.504Z,96202.47
2023-02-19T06:05:52.389Z,96202.63
2023-02-19T06:08:38.341Z,96202.47
2023-02-19T06:11:25.228Z,96203.47
2023-02-19T06:14:13.858Z,96198.72
2023-02-19T06:16:59.570Z,96213.25
2023-02-19T06:19:45.397Z,96208.47
2023-02-19T06:22:31.346Z,96211.56
2023-02-19T06:25:18.447Z,96207.34
2023-02-19T06:28:04.878Z,96210.28
2023-02-19T06:30:51.583Z,96211.97
2023-02-19T06:33:40.522Z,96203.59
2023-02-19T06:36:26.678Z,96210.44
2023-02-19T06:39:12.505Z,96192.00
2023-02-19T06:41:58.404Z,96194.94
2023-02-19T06:44:45.460Z,96207.75
2023-02-19T06:47:32.665Z,96195.19
2023-02-19T06:50:18.738Z,96204.53
2023-02-19T06:53:04.834Z,96190.28
2023-02-19T06:56:08.310Z,96190.13
2023-02-19T06:58:55.940Z,96192.78
2023-02-19T07:01:41.721Z,96194.56
2023-02-19T07:04:27.663Z,96191.91
2023-02-19T07:07:13.962Z,96193.84
2023-02-19T07:09:59.864Z,96170.38
2023-02-19T07:12:48.646Z,96185.97
2023-02-19T07:15:34.720Z,96184.25
2023-02-19T07:18:20.592Z,96183.66
2023-02-19T07:21:11.741Z,96176.13
2023-02-19T07:23:58.546Z,96169.09
2023-02-19T07:26:44.149Z,96174.09
2023-02-19T07:29:29.939Z,96176.69
2023-02-19T07:32:15.662Z,96181.13
2023-02-19T07:35:01.517Z,96172.41
2023-02-19T07:37:47.329Z,96171.63
2023-02-19T07:40:33.237Z,96156.84
2023-02-19T07:43:19.488Z,96146.94
2023-02-19T07:46:14.761Z,96133.31
2023-02-19T07:49:01.133Z,96145.06
2023-02-19T07:51:47.042Z,96147.78
2023-02-19T07:54:33.045Z,96151.03
2023-02-19T07:57:18.835Z,96141.31
2023-02-19T08:00:05.104Z,96135.41
2023-02-19T08:03:01.262Z,96131.66
2023-02-19T08:05:51.091Z,96132.38
2023-02-19T08:08:43.520Z,96134.75
2023-02-19T08:11:48.083Z,96125.22
2023-02-19T08:14:34.090Z,96127.44
2023-02-19T08:17:20.124Z,96118.53
2023-02-19T08:20:06.232Z,96122.94
2023-02-19T08:22:52.331Z,96119.78
2023-02-19T08:25:38.974Z,96109.16
2023-02-19T08:28:25.369Z,96101.66
2023-02-19T08:31:12.719Z,96112.19
2023-02-19T08:33:58.815Z,96093.50
2023-02-19T08:36:44.670Z,96071.63
2023-02-19T08:39:30.502Z,96069.09
2023-02-19T08:42:16.297Z,96084.25
2023-02-19T08:45:06.023Z,96079.22
2023-02-19T08:47:53.746Z,96071.78
2023-02-19T08:50:43.702Z,96060.88
2023-02-19T08:53:32.204Z,96067.56
2023-02-19T08:56:18.342Z,96048.44
2023-02-19T08:59:04.174Z,96055.53
2023-02-19T09:01:50.207Z,96056.97
2023-02-19T09:04:37.832Z,96042.84
2023-02-19T09:07:23.773Z,96045.72
2023-02-19T09:10:13.850Z,96057.97
2023-02-19T09:12:59.734Z,96046.28
2023-02-19T09:15:45.689Z,96040.16
2023-02-19T09:18:32.054Z,95999.81
2023-02-19T09:21:18.060Z,96030.13
2023-02-19T09:24:04.130Z,96024.75
2023-02-19T09:26:51.556Z,96034.38
2023-02-19T09:29:37.764Z,96035.22
2023-02-19T09:32:23.592Z,96030.59
2023-02-19T09:35:09.312Z,96029.19
2023-02-19T09:37:55.240Z,96010.19
2023-02-19T09:40:41.109Z,96022.63
2023-02-19T09:43:28.237Z,96016.06
2023-02-19T09:46:40.559Z,96000.22
2023-02-19T09:49:34.181Z,95991.28
2023-02-19T09:52:37.113Z,95994.22
2023-02-19T09:55:32.802Z,95995.38
2023-02-19T09:58:32.497Z,95989.31
2023-02-19T10:01:18.853Z,95983.22
2023-02-19T10:04:04.758Z,95989.34
2023-02-19T10:06:51.747Z,95986.69
2023-02-19T10:09:38.469Z,95971.97
2023-02-19T10:12:30.109Z,95962.16
2023-02-19T10:15:31.105Z,95967.97
2023-02-19T10:18:23.255Z,95960.00
2023-02-19T10:21:22.238Z,95954.16
2023-02-19T10:24:08.709Z,95955.53
2023-02-19T10:26:54.634Z,95950.38
2023-02-19T10:29:40.788Z,95936.75
2023-02-19T10:32:29.582Z,95949.34
2023-02-19T10:35:16.538Z,95943.06
2023-02-19T10:38:03.916Z,95921.94
2023-02-19T10:40:58.465Z,95922.38
2023-02-19T10:44:03.418Z,95932.53
2023-02-19T10:46:51.524Z,95911.59
2023-02-19T10:49:44.008Z,95910.81
2023-02-19T10:52:34.370Z,95899.63
2023-02-19T10:55:20.903Z,95898.19
2023-02-19T10:58:26.096Z,95891.53
2023-02-19T11:01:23.110Z,95881.56
2023-02-19T11:04:17.922Z,95884.91
2023-02-19T11:07:13.278Z,95867.31
2023-02-19T11:09:59.530Z,95866.53
2023-02-19T11:12:48.412Z,95856.75
2023-02-19T11:15:36.108Z,95866.75
2023-02-19T11:18:27.671Z,95855.13
2023-02-19T11:21:28.734Z,95844.97
2023-02-19T11:24:24.919Z,95857.81
2023-02-19T11:27:19.245Z,95836.69
2023-02-19T11:30:27.003Z,95835.47
2023-02-19T11:33:16.020Z,95809.38
2023-02-19T11:36:20.491Z,95834.03
2023-02-19T11:39:15.826Z,95823.00
2023-02-19T11:42:16.148Z,95816.41
2023-02-19T11:45:26.206Z,95808.72
2023-02-19T11:48:41.654Z,95810.81
2023-02-19T11:51:52.453Z,95813.69
2023-02-19T11:54:49.279Z,95810.16
2023-02-19T11:57:40.879Z,95800.81
2023-02-19T12:00:31.464Z,95798.75
2023-02-19T12:03:39.233Z,95799.38
2023-02-19T12:06:39.384Z,95798.13
2023-02-19T12:09:31.412Z,95794.78
2023-02-19T12:12:35.051Z,95782.34
2023-02-19T12:15:31.984Z,95781.47
2023-02-19T12:18:24.789Z,95773.41
2023-02-19T12:21:26.675Z,95766.16
2023-02-19T12:24:38.087Z,95762.78
2023-02-19T12:27:49.635Z,95759.50
2023-02-19T12:30:54.499Z,95752.34
2023-02-19T12:34:01.878Z,95718.31
2023-02-19T12:37:25.276Z,95727.25
2023-02-19T12:40:11.280Z,95721.06
2023-02-19T12:43:15.483Z,95718.06
2023-02-19T12:46:21.689Z,95724.16
2023-02-19T12:49:40.026Z,95692.00
2023-02-19T12:52:28.683Z,95688.66
2023-02-19T12:55:37.790Z,95693.06
2023-02-19T12:58:32.490Z,95696.03
2023-02-19T13:01:23.738Z,95700.59
2023-02-19T13:04:31.252Z,95699.28
2023-02-19T13:07:21.845Z,95673.03
2023-02-19T13:10:10.844Z,95689.19
2023-02-19T13:13:00.561Z,95682.94
2023-02-19T13:15:53.278Z,95686.13
2023-02-19T13:18:49.039Z,95662.47
2023-02-19T13:21:55.957Z,95670.50
2023-02-19T13:24:42.619Z,95664.38
2023-02-19T13:27:43.054Z,95657.25
2023-02-19T13:30:36.278Z,95667.09
2023-02-19T13:33:46.582Z,95650.34
2023-02-19T13:36:35.024Z,95628.63
2023-02-19T13:39:21.948Z,95647.44
2023-02-19T13:42:24.644Z,95638.88
2023-02-19T13:45:22.208Z,95645.88
2023-02-19T13:48:14.456Z,95643.03
2023-02-19T13:51:29.527Z,95639.66
2023-02-19T13:54:22.889Z,95632.34
2023-02-19T13:57:23.971Z,95639.59
2023-02-19T14:00:49.467Z,95652.44
2023-02-19T14:04:08.213Z,95625.53
2023-02-19T14:07:03.363Z,95644.75
2023-02-19T14:09:49.791Z,95626.50
2023-02-19T14:12:37.054Z,95624.13
2023-02-19T14:15:44.288Z,95626.75
2023-02-19T14:18:46.615Z,95621.03
2023-02-19T14:21:38.516Z,95625.94
2023-02-19T14:24:25.792Z,95624.75
2023-02-19T14:27:12.213Z,95631.50
2023-02-19T14:29:58.546Z,95622.69
2023-02-19T14:32:47.471Z,95633.78
2023-02-19T14:35:47.833Z,95633.00
2023-02-19T14:38:39.752Z,95622.59
2023-02-19T14:41:26.240Z,95620.38
2023-02-19T14:44:18.660Z,95623.88
2023-02-19T14:47:11.902Z,95626.22
2023-02-19T14:50:02.785Z,95636.34
2023-02-19T14:52:50.241Z,95624.75
2023-02-19T14:55:37.953Z,95632.25
2023-02-19T14:58:28.608Z,95630.81
2023-02-19T15:01:28.053Z,95625.00
2023-02-19T15:04:34.661Z,95622.56
2023-02-19T15:07:23.899Z,95619.72
2023-02-19T15:10:12.633Z,95621.09
2023-02-19T15:13:01.667Z,95630.91
2023-02-19T15:15:47.914Z,95628.63
2023-02-19T15:18:36.619Z,95630.53
2023-02-19T15:21:28.152Z,95622.69
2023-02-19T15:24:16.147Z,95635.63
2023-02-19T15:27:02.095Z,95620.38
2023-02-19T15:29:51.726Z,95626.44
2023-02-19T15:32:39.158Z,95636.13
2023-02-19T15:35:27.142Z,95631.63
2023-02-19T15:38:12.935Z,95635.06
2023-02-19T15:40:59.545Z,95636.16
2023-02-19T15:43:58.694Z,95632.38
2023-02-19T15:46:45.590Z,95650.06
2023-02-19T15:49:45.105Z,95651.41
2023-02-19T15:52:38.879Z,95651.91
2023-02-19T15:55:33.719Z,95662.88
2023-02-19T15:58:28.837Z,95663.75
2023-02-19T16:01:25.209Z,95665.13
2023-02-19T16:04:14.030Z,95669.88
2023-02-19T16:07:02.338Z,95662.47
2023-02-19T16:09:47.981Z,95680.50
2023-02-19T16:12:34.031Z,95689.44
2023-02-19T16:15:20.861Z,95691.13
2023-02-19T16:18:06.895Z,95694.88
2023-02-19T16:20:52.817Z,95695.53
2023-02-19T16:23:43.011Z,95696.59
2023-02-19T16:26:29.514Z,95691.44
2023-02-19T16:29:20.561Z,95693.28
2023-02-19T16:32:14.119Z,95708.44
2023-02-19T16:35:03.336Z,95711.56
2023-02-19T16:37:59.645Z,95714.28
2023-02-19T16:40:53.271Z,95728.97
2023-02-19T16:43:43.623Z,95718.63
2023-02-19T16:46:32.544Z,95728.56
2023-02-19T16:49:18.930Z,95738.31
2023-02-19T16:52:05.301Z,95741.19
2023-02-19T16:54:51.512Z,95735.19
2023-02-19T16:57:37.360Z,95754.22
2023-02-19T17:00:31.222Z,95773.66
2023-02-19T17:03:22.134Z,95773.44
2023-02-19T17:06:08.269Z,95771.97
2023-02-19T17:08:54.139Z,95751.47
2023-02-19T17:11:40.307Z,95774.44
2023-02-19T17:14:26.528Z,95785.63
2023-02-19T17:17:12.697Z,95795.50
2023-02-19T17:19:58.748Z,95813.50
2023-02-19T17:22:44.935Z,95811.25
2023-02-19T17:25:31.808Z,95796.75
2023-02-19T17:28:17.848Z,95796.91
2023-02-19T17:31:04.190Z,95798.78
2023-02-19T17:33:50.675Z,95808.28
2023-02-19T17:36:38.113Z,95785.50
2023-02-19T17:39:24.214Z,95821.13
2023-02-19T17:42:10.418Z,95823.59
2023-02-19T17:44:56.255Z,95834.16
2023-02-19T17:47:42.291Z,95829.13
2023-02-19T17:50:32.376Z,95832.03
2023-02-19T17:53:18.892Z,95852.47
2023-02-19T17:56:05.174Z,95851.84
2023-02-19T17:58:51.902Z,95860.94
2023-02-19T18:01:38.288Z,95841.03
2023-02-19T18:04:24.236Z,95862.31
2023-02-19T18:07:09.959Z,95875.72
2023-02-19T18:09:56.240Z,95874.47
2023-02-19T18:12:42.710Z,95866.16
2023-02-19T18:15:29.001Z,95880.63
2023-02-19T18:18:15.182Z,95891.16
2023-02-19T18:21:01.219Z,95888.38
2023-02-19T18:23:47.103Z,95893.97
2023-02-19T18:26:33.743Z,95900.38
2023-02-19T18:29:20.214Z,95902.97
2023-02-19T18:32:06.179Z,95907.91
2023-02-19T18:34:54.418Z,95899.97
2023-02-19T18:37:40.242Z,95907.38
2023-02-19T18:40:26.056Z,95914.41
2023-02-19T18:43:13.145Z,95916.84
2023-02-19T18:45:59.487Z,95920.28
2023-02-19T18:48:45.677Z,95923.75
2023-02-19T18:51:31.934Z,95924.50
2023-02-19T18:54:17.761Z,95919.53
2023-02-19T18:57:04.599Z,95937.88
2023-02-19T18:59:50.810Z,95946.88
2023-02-19T19:02:48.614Z,95947.63
2023-02-19T19:05:35.176Z,95963.84
2023-02-19T19:08:20.873Z,95972.66
2023-02-19T19:11:06.718Z,95990.81
2023-02-19T19:13:52.992Z,95982.03
2023-02-19T19:16:39.123Z,95987.94
2023-02-19T19:19:25.027Z,95987.47
2023-02-19T19:22:10.950Z,95947.09
2023-02-19T19:24:56.814Z,95971.22
2023-02-19T19:27:42.803Z,95988.59
2023-02-19T19:30:28.624Z,95978.06
2023-02-19T19:33:14.407Z,95978.00
2023-02-19T19:36:00.124Z,95988.25
2023-02-19T19:38:46.600Z,95997.47
2023-02-19T19:41:32.609Z,95999.34
2023-02-19T19:44:18.405Z,95991.22
2023-02-19T19:47:04.423Z,95995.91
2023-02-19T19:49:50.649Z,95997.13
2023-02-19T19:52:36.384Z,95993.97
2023-02-19T19:55:22.382Z,95999.06
2023-02-19T19:58:08.386Z,96010.69
2023-02-19T20:00:54.869Z,95996.53
2023-02-19T20:03:41.358Z,96005.09
2023-02-19T20:06:29.865Z,96012.13
2023-02-19T20:09:17.722Z,96027.38
2023-02-19T20:12:04.492Z,96016.63
2023-02-19T20:14:50.462Z,96035.81
2023-02-19T20:17:36.433Z,96034.16
2023-02-19T20:20:22.749Z,96030.19
2023-02-19T20:23:09.624Z,96024.78
2023-02-19T20:25:58.473Z,96044.84
2023-02-19T20:28:46.531Z,96031.69
2023-02-19T20:31:34.672Z,96041.88
2023-02-19T20:34:22.760Z,96051.25
2023-02-19T20:37:08.967Z,96045.63
2023-02-19T20:39:54.870Z,96046.44
2023-02-19T20:42:40.879Z,96041.97
2023-02-19T20:45:28.303Z,96033.34
2023-02-19T20:48:17.649Z,96049.06
2023-02-19T20:51:04.027Z,96053.41
2023-02-19T20:53:49.760Z,96055.59
2023-02-19T20:56:35.670Z,96060.50
2023-02-19T20:59:23.608Z,96064.16
2023-02-19T21:02:16.594Z,96062.00
2023-02-19T21:05:03.227Z,96073.56
2023-02-19T21:07:49.412Z,96045.53
2023-02-19T21:10:35.720Z,96066.91
2023-02-19T21:13:21.535Z,96070.94
2023-02-19T21:16:07.635Z,96061.81
2023-02-19T21:18:53.794Z,96071.81
2023-02-19T21:21:40.486Z,96078.34
2023-02-19T21:24:26.568Z,96077.22
2023-02-19T21:27:12.558Z,96085.06
2023-02-19T21:29:58.554Z,96083.91
2023-02-19T21:32:44.510Z,96062.88
2023-02-19T21:35:30.791Z,96090.81
2023-02-19T21:38:16.795Z,96090.13
2023-02-19T21:41:02.896Z,96082.97
2023-02-19T21:43:48.659Z,96084.81
2023-02-19T21:46:34.692Z,96084.50
2023-02-19T21:49:21.561Z,96094.03
2023-02-19T21:52:07.581Z,96075.53
2023-02-19T21:54:53.727Z,96093.41
2023-02-19T21:57:39.856Z,96088.56
2023-02-19T22:00:25.880Z,96079.22
2023-02-19T22:03:16.188Z,96111.31
2023-02-19T22:06:02.413Z,96101.31
2023-02-19T22:08:48.498Z,96112.00
2023-02-19T22:11:34.521Z,96115.19
2023-02-19T22:14:20.630Z,96107.66
2023-02-19T22:17:06.413Z,96088.25
2023-02-19T22:19:52.495Z,96111.97
2023-02-19T22:22:38.173Z,96115.16
2023-02-19T22:25:24.252Z,96117.84
2023-02-19T22:28:10.585Z,96121.69
2023-02-19T22:30:56.547Z,96103.16
2023-02-19T22:33:42.495Z,96142.75
2023-02-19T22:36:33.364Z,96134.75
2023-02-19T22:39:25.116Z,96112.03
2023-02-19T22:42:10.812Z,96129.72
2023-02-19T22:44:56.808Z,96128.03
2023-02-19T22:47:43.927Z,96129.06
2023-02-19T22:50:30.684Z,96143.75
2023-02-19T22:53:16.741Z,96143.75
2023-02-19T22:56:02.823Z,96150.41
2023-02-19T22:58:49.163Z,96148.09
2023-02-19T23:01:35.678Z,96142.25
2023-02-19T23:04:22.858Z,96146.75
2023-02-19T23:07:08.823Z,96148.91
2023-02-19T23:09:54.640Z,96157.59
2023-02-19T23:12:41.266Z,96150.09
2023-02-19T23:15:26.910Z,96152.59
2023-02-19T23:18:12.705Z,96150.44
2023-02-19T23:20:58.468Z,96143.41
2023-02-19T23:23:45.762Z,96159.28
2023-02-19T23:26:31.929Z,96140.91
2023-02-19T23:29:25.078Z,96142.75
2023-02-19T23:32:11.276Z,96157.41
2023-02-19T23:34:56.947Z,96156.41
2023-02-19T23:37:43.077Z,96173.09
2023-02-19T23:40:29.198Z,96163.06
2023-02-19T23:43:15.138Z,96158.41
2023-02-19T23:46:01.909Z,96173.09
2023-02-19T23:48:47.843Z,96155.53
2023-02-19T23:51:33.892Z,96162.56
2023-02-19T23:54:19.728Z,96178.75
2023-02-19T23:57:05.704Z,96174.41
2023-02-19T23:59:51.891Z,96184.59
